Eden Prairie, MN (55344)

4:02 PM CST on February 08, 2016 (GMT -0600)
Flying Cloud Airport | | Change Station
CLOSE
Current Station
Personal Weather Station
Location: Eden Prairie, MN
Elevation: 902 ft
Nearby Weather Stations

Elev 902 ft 44.83 °N, 93.46 °W | Updated 122 days ago

Partly Cloudy
Partly Cloudy
14 °F
Feels Like -4 °F
N
20
Wind Variable Wind from NNW
Gusts 32 mph

Today
High -- | Low -- °F
--% Chance of Precip.
Yesterday
High -- | Low -- °F
Precip. -- in
Pressure 30.01 in
Visibility 9.0 miles
Clouds Overcast 3000 ft
Windchill -4 °F
Dew Point 6 °F
Humidity 70%
Rainfall in
Snow Depth Not available.
7:25 AM 5:31 PM
New Moon, 0% visible
METAR KFCM 082153Z 32013G24KT 9SM OVC030 M08/M14 A2996 RMK AO2 SLP161 T10831144
Pressure 30.01 in
Visibility 9.0 miles
Clouds Overcast 3000 ft
Windchill -4 °F
Dew Point 6 °F
Humidity 70%
Rainfall in
Snow Depth Not available.
7:25 AM 5:31 PM
New Moon, 0% visible
METAR KFCM 082153Z 32013G24KT 9SM OVC030 M08/M14 A2996 RMK AO2 SLP161 T10831144

10-Day Weather Forecast

Almanac

Astronomy

Feb. 08, 2016 Rise Set
Actual Time
Civil Twilight
Nautical Twilight
Astronomical Twilight
Moon
Length of Visible Light
Length of Day
Tomorrow will be .
, % of the Moon is Illuminated

Today's Extremes

State Highs State Lows

Community

WunderPhotos

Upload Photos

1,891,511 photos uploaded!

WunderBlog® & News

Nearby

Air Quality

  Air Quality AQ Index Pollutant
Not available.

Snow Depth

Station Depth Elevation

Earthquake Activity

City Distance Mag. Time & Date
Minimum magnitude displayed is 2.5.

Coastal Water Temperatures

Place Temperature

Stations

Nearby Weather Stations

Station Location Temp. Windchill Dew Point Humidity Wind Precip. Elev Updated Type
                   

Watches & Warnings

There are currently no watches in effect.